createdAt,value
2022-12-09T00:01:24.147Z,0.75
2022-12-09T00:03:51.223Z,0.79
2022-12-09T00:06:21.300Z,0.67
2022-12-09T00:08:49.086Z,0.59
2022-12-09T00:11:16.474Z,0.50
2022-12-09T00:13:43.612Z,0.48
2022-12-09T00:16:13.405Z,0.47
2022-12-09T00:18:41.237Z,0.51
2022-12-09T00:21:22.616Z,0.53
2022-12-09T00:23:50.762Z,0.56
2022-12-09T00:26:18.451Z,0.62
2022-12-09T00:28:46.068Z,0.58
2022-12-09T00:31:15.897Z,0.58
2022-12-09T00:33:43.440Z,0.57
2022-12-09T00:36:14.472Z,0.56
2022-12-09T00:38:42.022Z,0.52
2022-12-09T00:41:09.400Z,0.53
2022-12-09T00:43:36.849Z,0.53
2022-12-09T00:46:04.176Z,0.49
2022-12-09T00:48:31.181Z,0.45
2022-12-09T00:50:58.013Z,0.43
2022-12-09T00:53:25.027Z,0.46
2022-12-09T00:55:52.560Z,0.42
2022-12-09T00:58:19.551Z,0.39
2022-12-09T01:00:46.299Z,0.35
2022-12-09T01:03:15.173Z,0.37
2022-12-09T01:05:43.031Z,0.32
2022-12-09T01:08:11.070Z,0.27
2022-12-09T01:10:39.809Z,0.29
2022-12-09T01:13:06.766Z,0.29
2022-12-09T01:15:34.175Z,0.21
2022-12-09T01:18:01.218Z,0.26
2022-12-09T01:20:28.017Z,0.22
2022-12-09T01:22:54.951Z,0.27
2022-12-09T01:25:21.992Z,0.24
2022-12-09T01:27:48.777Z,0.19
2022-12-09T01:30:16.652Z,0.14
2022-12-09T01:32:43.618Z,0.15
2022-12-09T01:35:10.807Z,0.19
2022-12-09T01:37:38.626Z,0.19
2022-12-09T01:40:08.732Z,0.17
2022-12-09T01:42:36.292Z,0.13
2022-12-09T01:45:30.765Z,0.06
2022-12-09T01:48:08.717Z,0.04
2022-12-09T01:50:37.835Z,-0.01
2022-12-09T01:53:05.998Z,0.04
2022-12-09T01:55:32.991Z,0.10
2022-12-09T01:58:00.133Z,0.17
2022-12-09T02:00:27.358Z,0.08
2022-12-09T02:02:56.442Z,0.06
2022-12-09T02:05:24.668Z,0.12
2022-12-09T02:07:52.171Z,0.10
2022-12-09T02:10:19.895Z,0.15
2022-12-09T02:12:59.918Z,0.16
2022-12-09T02:15:52.552Z,0.14
2022-12-09T02:18:42.821Z,0.07
2022-12-09T02:21:15.575Z,0.09
2022-12-09T02:24:00.998Z,0.03
2022-12-09T02:26:48.439Z,-0.04
2022-12-09T02:29:44.588Z,-0.12
2022-12-09T02:32:36.326Z,-0.20
2022-12-09T02:35:11.939Z,-0.32
2022-12-09T02:37:45.532Z,-0.26
2022-12-09T02:40:17.861Z,-0.22
2022-12-09T02:42:48.683Z,-0.24
2022-12-09T02:45:17.054Z,-0.22
2022-12-09T02:47:49.082Z,-0.25
2022-12-09T02:50:21.760Z,-0.24
2022-12-09T02:52:51.194Z,-0.22
2022-12-09T02:55:20.514Z,-0.26
2022-12-09T02:57:51.198Z,-0.27
2022-12-09T03:00:18.362Z,-0.33
2022-12-09T03:02:49.298Z,-0.48
2022-12-09T03:05:27.245Z,-0.45
2022-12-09T03:08:12.608Z,-0.46
2022-12-09T03:10:51.538Z,-0.46
2022-12-09T03:13:33.365Z,-0.47
2022-12-09T03:16:10.196Z,-0.50
2022-12-09T03:18:43.506Z,-0.56
2022-12-09T03:21:14.599Z,-0.53
2022-12-09T03:23:45.588Z,-0.51
2022-12-09T03:26:15.595Z,-0.51
2022-12-09T03:28:49.214Z,-0.51
2022-12-09T03:31:21.050Z,-0.60
2022-12-09T03:33:54.088Z,-0.62
2022-12-09T03:36:23.764Z,-0.60
2022-12-09T03:38:52.584Z,-0.54
2022-12-09T03:41:31.725Z,-0.49
2022-12-09T03:44:22.017Z,-0.49
2022-12-09T03:46:49.201Z,-0.48
2022-12-09T03:49:16.612Z,-0.53
2022-12-09T03:51:49.766Z,-0.55
2022-12-09T03:54:22.255Z,-0.54
2022-12-09T03:56:53.374Z,-0.54
2022-12-09T03:59:22.445Z,-0.66
2022-12-09T04:01:49.568Z,-0.70
2022-12-09T04:04:17.015Z,-0.67
2022-12-09T04:06:44.838Z,-0.68
2022-12-09T04:09:12.166Z,-0.74
2022-12-09T04:11:39.247Z,-0.71
2022-12-09T04:14:10.438Z,-0.70
2022-12-09T04:16:40.975Z,-0.73
2022-12-09T04:19:07.799Z,-0.67
2022-12-09T04:21:34.836Z,-0.74
2022-12-09T04:24:01.673Z,-0.77
2022-12-09T04:26:28.393Z,-0.74
2022-12-09T04:28:55.530Z,-0.82
2022-12-09T04:31:22.356Z,-0.72
2022-12-09T04:33:49.499Z,-0.66
2022-12-09T04:36:18.728Z,-0.69
2022-12-09T04:38:46.496Z,-0.64
2022-12-09T04:41:14.532Z,-0.57
2022-12-09T04:43:41.631Z,-0.58
2022-12-09T04:46:13.633Z,-0.65
2022-12-09T04:48:40.717Z,-0.66
2022-12-09T04:51:12.976Z,-0.69
2022-12-09T04:53:40.806Z,-0.67
2022-12-09T04:56:12.845Z,-0.66
2022-12-09T04:58:40.023Z,-0.62
2022-12-09T05:01:08.934Z,-0.68
2022-12-09T05:03:36.883Z,-0.72
2022-12-09T05:06:05.843Z,-0.74
2022-12-09T05:08:33.683Z,-0.69
2022-12-09T05:11:01.111Z,-0.68
2022-12-09T05:13:28.611Z,-0.72
2022-12-09T05:16:12.125Z,-0.79
2022-12-09T05:18:43.070Z,-0.86
2022-12-09T05:21:14.971Z,-0.91
2022-12-09T05:23:42.423Z,-0.91
2022-12-09T05:26:13.138Z,-0.91
2022-12-09T05:28:40.470Z,-0.94
2022-12-09T05:31:11.497Z,-1.01
2022-12-09T05:33:38.714Z,-1.00
2022-12-09T05:36:10.065Z,-1.04
2022-12-09T05:38:37.565Z,-1.06
2022-12-09T05:41:04.687Z,-1.09
2022-12-09T05:43:34.678Z,-1.07
2022-12-09T05:46:03.624Z,-0.96
2022-12-09T05:48:31.054Z,-0.87
2022-12-09T05:51:03.617Z,-0.91
2022-12-09T05:53:32.092Z,-0.89
2022-12-09T05:55:59.414Z,-0.77
2022-12-09T05:58:27.016Z,-0.79
2022-12-09T06:00:56.636Z,-0.80
2022-12-09T06:03:24.622Z,-0.77
2022-12-09T06:05:52.325Z,-0.73
2022-12-09T06:08:19.761Z,-0.74
2022-12-09T06:10:47.244Z,-0.72
2022-12-09T06:13:14.714Z,-0.72
2022-12-09T06:15:41.831Z,-0.73
2022-12-09T06:18:09.239Z,-0.74
2022-12-09T06:20:41.136Z,-0.77
2022-12-09T06:23:08.061Z,-0.81
2022-12-09T06:25:36.954Z,-0.81
2022-12-09T06:28:04.877Z,-0.85
2022-12-09T06:30:32.501Z,-0.85
2022-12-09T06:33:00.551Z,-0.88
2022-12-09T06:35:27.780Z,-0.84
2022-12-09T06:37:54.749Z,-0.78
2022-12-09T06:40:22.752Z,-0.78
2022-12-09T06:42:51.256Z,-0.83
2022-12-09T06:45:21.780Z,-0.80
2022-12-09T06:47:49.324Z,-0.77
2022-12-09T06:50:22.092Z,-0.78
2022-12-09T06:52:49.168Z,-0.83
2022-12-09T06:55:16.179Z,-0.82
2022-12-09T06:57:43.213Z,-0.77
2022-12-09T07:00:12.849Z,-0.75
2022-12-09T07:02:49.406Z,-0.81
2022-12-09T07:05:17.836Z,-0.76
2022-12-09T07:07:49.888Z,-0.67
2022-12-09T07:10:16.947Z,-0.55
2022-12-09T07:12:44.153Z,-0.59
2022-12-09T07:15:12.200Z,-0.64
2022-12-09T07:17:39.361Z,-0.78
2022-12-09T07:20:14.141Z,-0.85
2022-12-09T07:22:41.380Z,-0.86
2022-12-09T07:25:09.064Z,-0.80
2022-12-09T07:27:39.789Z,-0.79
2022-12-09T07:30:07.581Z,-0.77
2022-12-09T07:32:34.703Z,-0.74
2022-12-09T07:35:01.663Z,-0.74
2022-12-09T07:37:30.365Z,-0.76
2022-12-09T07:40:00.676Z,-0.80
2022-12-09T07:42:29.584Z,-0.78
2022-12-09T07:44:56.537Z,-0.83
2022-12-09T07:47:24.119Z,-0.81
2022-12-09T07:49:55.230Z,-0.74
2022-12-09T07:52:23.543Z,-0.68
2022-12-09T07:54:50.523Z,-0.66
2022-12-09T07:57:18.397Z,-0.67
2022-12-09T07:59:45.294Z,-0.66
2022-12-09T08:02:13.016Z,-0.66
2022-12-09T08:04:40.343Z,-0.64
2022-12-09T08:07:07.468Z,-0.60
2022-12-09T08:09:34.867Z,-0.51
2022-12-09T08:12:02.051Z,-0.46
2022-12-09T08:14:29.046Z,-0.38
2022-12-09T08:16:56.268Z,-0.31
2022-12-09T08:19:23.684Z,-0.24
2022-12-09T08:21:54.590Z,-0.27
2022-12-09T08:24:21.984Z,-0.23
2022-12-09T08:26:50.943Z,-0.25
2022-12-09T08:29:18.431Z,-0.19
2022-12-09T08:31:45.696Z,-0.20
2022-12-09T08:34:13.539Z,-0.15
2022-12-09T08:36:41.725Z,-0.06
2022-12-09T08:39:09.332Z,-0.01
2022-12-09T08:41:38.181Z,-0.13
2022-12-09T08:44:12.152Z,-0.09
2022-12-09T08:46:41.803Z,0.09
2022-12-09T08:49:10.075Z,0.17
2022-12-09T08:51:37.610Z,0.17
2022-12-09T08:54:06.047Z,0.16
2022-12-09T08:56:33.540Z,0.16
2022-12-09T08:59:00.712Z,0.20
2022-12-09T09:01:32.772Z,0.11
2022-12-09T09:04:07.865Z,0.17
2022-12-09T09:06:37.620Z,0.22
2022-12-09T09:09:07.190Z,0.20
2022-12-09T09:11:35.290Z,0.23
2022-12-09T09:14:07.703Z,0.27
2022-12-09T09:16:35.727Z,0.33
2022-12-09T09:19:05.752Z,0.16
2022-12-09T09:21:33.787Z,0.16
2022-12-09T09:24:01.518Z,0.20
2022-12-09T09:26:28.866Z,0.32
2022-12-09T09:28:56.447Z,0.45
2022-12-09T09:31:25.073Z,0.48
2022-12-09T09:33:52.237Z,0.48
2022-12-09T09:36:23.660Z,0.51
2022-12-09T09:38:53.140Z,0.58
2022-12-09T09:41:24.766Z,0.63
2022-12-09T09:43:53.175Z,0.80
2022-12-09T09:46:44.541Z,0.96
2022-12-09T09:49:18.902Z,1.09
2022-12-09T09:51:46.834Z,1.12
2022-12-09T09:54:15.978Z,1.06
2022-12-09T09:56:53.664Z,1.08
2022-12-09T09:59:49.347Z,1.06
2022-12-09T10:02:21.876Z,1.11
2022-12-09T10:05:03.705Z,1.14
2022-12-09T10:07:42.953Z,1.22
2022-12-09T10:10:35.910Z,1.26
2022-12-09T10:13:25.344Z,1.33
2022-12-09T10:16:09.369Z,1.34
2022-12-09T10:19:09.651Z,1.37
2022-12-09T10:21:41.079Z,1.44
2022-12-09T10:24:21.149Z,1.44
2022-12-09T10:27:14.639Z,1.54
2022-12-09T10:29:56.908Z,1.82
2022-12-09T10:32:27.697Z,1.87
2022-12-09T10:34:55.162Z,1.80
2022-12-09T10:37:30.844Z,1.88
2022-12-09T10:40:21.350Z,1.88
2022-12-09T10:43:16.178Z,1.97
2022-12-09T10:48:53.050Z,2.11
2022-12-09T10:51:24.055Z,2.09
2022-12-09T10:54:10.505Z,2.12
2022-12-09T10:56:40.149Z,2.15
2022-12-09T10:59:15.952Z,2.25
2022-12-09T11:01:54.962Z,2.35
2022-12-09T11:04:29.691Z,2.38
2022-12-09T11:07:12.137Z,2.37
2022-12-09T11:09:49.127Z,2.47
2022-12-09T11:12:33.473Z,2.47
2022-12-09T11:15:25.565Z,2.40
2022-12-09T11:18:08.728Z,2.36
2022-12-09T11:20:36.500Z,2.30
2022-12-09T11:23:15.211Z,2.40
2022-12-09T11:25:56.498Z,2.43
2022-12-09T11:28:40.297Z,2.37
2022-12-09T11:31:33.486Z,2.31
2022-12-09T11:34:04.713Z,2.35
2022-12-09T11:36:43.684Z,2.31
2022-12-09T11:39:13.974Z,2.29
2022-12-09T11:42:08.127Z,2.39
2022-12-09T11:44:38.506Z,2.45
2022-12-09T11:47:11.854Z,2.44
2022-12-09T11:49:50.642Z,2.44
2022-12-09T11:52:17.425Z,2.44
2022-12-09T11:54:56.869Z,2.44
2022-12-09T11:57:41.496Z,2.49
2022-12-09T12:00:21.308Z,2.63
2022-12-09T12:03:03.685Z,2.68
2022-12-09T12:05:42.049Z,2.71
2022-12-09T12:08:25.323Z,2.70
2022-12-09T12:11:01.118Z,2.70
2022-12-09T12:13:44.538Z,2.87
2022-12-09T12:16:19.099Z,2.84
2022-12-09T12:19:00.081Z,2.83
2022-12-09T12:21:56.423Z,2.84
2022-12-09T12:24:34.768Z,2.78
2022-12-09T12:27:29.724Z,2.80
2022-12-09T12:30:04.220Z,2.78
2022-12-09T12:36:18.139Z,2.71
2022-12-09T12:39:21.038Z,2.75
2022-12-09T12:42:01.319Z,2.81
2022-12-09T12:45:08.235Z,2.80
2022-12-09T12:48:00.140Z,2.78
2022-12-09T12:50:35.885Z,2.71
2022-12-09T12:53:45.154Z,2.68
2022-12-09T12:56:16.950Z,2.67
2022-12-09T12:59:11.535Z,2.70
2022-12-09T13:01:52.490Z,2.75
2022-12-09T13:04:37.573Z,2.69
2022-12-09T13:07:16.180Z,2.68
2022-12-09T13:09:50.155Z,2.66
2022-12-09T13:12:47.684Z,2.66
2022-12-09T13:15:16.795Z,2.68
2022-12-09T13:17:45.685Z,2.63
2022-12-09T13:20:24.565Z,2.61
2022-12-09T13:23:00.769Z,2.64
2022-12-09T13:25:53.524Z,2.64
2022-12-09T13:28:30.544Z,2.65
2022-12-09T13:30:59.271Z,2.64
2022-12-09T13:33:39.687Z,2.57
2022-12-09T13:36:18.255Z,2.54
2022-12-09T13:38:45.382Z,2.56
2022-12-09T13:41:27.444Z,2.51
2022-12-09T13:44:05.615Z,2.44
2022-12-09T13:46:33.839Z,2.45
2022-12-09T13:49:10.924Z,2.47
2022-12-09T13:51:46.198Z,2.44
2022-12-09T13:54:16.902Z,2.40
2022-12-09T13:56:44.300Z,2.50
2022-12-09T13:59:48.988Z,2.53
2022-12-09T14:02:15.744Z,2.54
2022-12-09T14:04:59.079Z,2.47
2022-12-09T14:07:31.729Z,2.42
2022-12-09T14:10:00.223Z,2.40
2022-12-09T14:12:26.971Z,2.42
2022-12-09T14:15:19.393Z,2.35
2022-12-09T14:17:46.326Z,2.40
2022-12-09T14:20:25.106Z,2.42
2022-12-09T14:23:10.637Z,2.43
2022-12-09T14:25:37.326Z,2.43
2022-12-09T14:28:10.295Z,2.43
2022-12-09T14:31:06.685Z,2.40
2022-12-09T14:33:43.929Z,2.40
2022-12-09T14:36:16.876Z,2.38
2022-12-09T14:39:29.887Z,2.40
2022-12-09T14:42:11.275Z,2.45
2022-12-09T14:44:53.932Z,2.51
2022-12-09T14:47:31.009Z,2.47
2022-12-09T14:50:07.341Z,2.48
2022-12-09T14:52:34.362Z,2.50
2022-12-09T14:55:05.955Z,2.52
2022-12-09T14:57:38.766Z,2.46
2022-12-09T15:00:07.618Z,2.49
2022-12-09T15:02:34.678Z,2.46
2022-12-09T15:05:03.192Z,2.44
2022-12-09T15:07:32.177Z,2.37
2022-12-09T15:10:36.325Z,2.34
2022-12-09T15:13:03.664Z,2.34
2022-12-09T15:15:32.376Z,2.32
2022-12-09T15:18:02.889Z,2.29
2022-12-09T15:20:37.050Z,2.29
2022-12-09T15:23:07.204Z,2.28
2022-12-09T15:25:46.977Z,2.27
2022-12-09T15:28:24.554Z,2.24
2022-12-09T15:30:58.359Z,2.24
2022-12-09T15:33:25.965Z,2.24
2022-12-09T15:35:58.385Z,2.24
2022-12-09T15:38:28.513Z,2.21
2022-12-09T15:41:16.459Z,2.23
2022-12-09T15:43:44.608Z,2.29
2022-12-09T15:46:12.877Z,2.34
2022-12-09T15:48:49.982Z,2.26
2022-12-09T15:51:21.631Z,2.28
2022-12-09T15:53:55.262Z,2.29
2022-12-09T15:56:47.543Z,2.34
2022-12-09T15:59:20.258Z,2.34
2022-12-09T16:01:51.278Z,2.33
2022-12-09T16:04:28.552Z,2.26
2022-12-09T16:07:04.968Z,2.27
2022-12-09T16:09:31.679Z,2.24
2022-12-09T16:11:58.421Z,2.23
2022-12-09T16:14:26.071Z,2.23
2022-12-09T16:17:01.989Z,2.31
2022-12-09T16:19:36.142Z,2.35
2022-12-09T16:22:15.310Z,2.26
2022-12-09T16:25:14.101Z,2.26
2022-12-09T16:27:44.741Z,2.28
2022-12-09T16:30:17.149Z,2.32
2022-12-09T16:32:52.245Z,2.37
2022-12-09T16:35:25.190Z,2.33
2022-12-09T16:37:58.635Z,2.28
2022-12-09T16:40:26.744Z,2.29
2022-12-09T16:43:13.623Z,2.27
2022-12-09T16:45:41.148Z,2.24
2022-12-09T16:48:09.203Z,2.22
2022-12-09T16:50:41.705Z,2.25
2022-12-09T16:53:37.517Z,2.31
2022-12-09T16:56:04.555Z,2.31
2022-12-09T16:58:34.512Z,2.34
2022-12-09T17:01:04.167Z,2.31
2022-12-09T17:03:52.708Z,2.32
2022-12-09T17:06:20.839Z,2.30
2022-12-09T17:08:48.044Z,2.33
2022-12-09T17:11:16.848Z,2.31
2022-12-09T17:13:44.180Z,2.30
2022-12-09T17:16:11.082Z,2.33
2022-12-09T17:18:40.096Z,2.32
2022-12-09T17:21:09.795Z,2.33
2022-12-09T17:23:40.038Z,2.34
2022-12-09T17:26:12.294Z,2.34
2022-12-09T17:28:40.646Z,2.41
2022-12-09T17:31:17.409Z,2.42
2022-12-09T17:33:44.935Z,2.42
2022-12-09T17:36:14.335Z,2.39
2022-12-09T17:38:42.259Z,2.41
2022-12-09T17:41:18.320Z,2.41
2022-12-09T17:43:45.854Z,2.37
2022-12-09T17:46:13.729Z,2.34
2022-12-09T17:48:41.862Z,2.28
2022-12-09T17:51:19.381Z,2.21
2022-12-09T17:53:47.253Z,2.24
2022-12-09T17:56:16.857Z,2.18
2022-12-09T17:58:44.049Z,2.18
2022-12-09T18:01:15.400Z,2.25
2022-12-09T18:04:00.463Z,2.27
2022-12-09T18:06:31.622Z,2.33
2022-12-09T18:08:58.364Z,2.30
2022-12-09T18:11:25.162Z,2.27
2022-12-09T18:13:52.543Z,2.27
2022-12-09T18:16:19.934Z,2.30
2022-12-09T18:18:47.382Z,2.26
2022-12-09T18:21:16.199Z,2.23
2022-12-09T18:23:43.792Z,2.28
2022-12-09T18:26:13.114Z,2.30
2022-12-09T18:28:40.416Z,2.32
2022-12-09T18:31:08.710Z,2.34
2022-12-09T18:33:37.411Z,2.34
2022-12-09T18:36:10.726Z,2.32
2022-12-09T18:38:38.338Z,2.29
2022-12-09T18:41:13.322Z,2.29
2022-12-09T18:43:42.345Z,2.32
2022-12-09T18:46:23.852Z,2.36
2022-12-09T18:49:02.998Z,2.37
2022-12-09T18:51:30.185Z,2.38
2022-12-09T18:53:58.753Z,2.39
2022-12-09T18:56:26.167Z,2.42
2022-12-09T18:59:09.732Z,2.42
2022-12-09T19:01:40.665Z,2.41
2022-12-09T19:04:12.628Z,2.42
2022-12-09T19:06:41.110Z,2.39
2022-12-09T19:09:14.665Z,2.37
2022-12-09T19:11:43.686Z,2.37
2022-12-09T19:14:11.345Z,2.37
2022-12-09T19:16:38.875Z,2.35
2022-12-09T19:19:09.950Z,2.38
2022-12-09T19:21:38.100Z,2.38
2022-12-09T19:24:05.383Z,2.38
2022-12-09T19:26:33.684Z,2.37
2022-12-09T19:29:07.153Z,2.36
2022-12-09T19:31:54.775Z,2.33
2022-12-09T19:34:24.176Z,2.33
2022-12-09T19:36:53.087Z,2.36
2022-12-09T19:39:23.480Z,2.44
2022-12-09T19:41:51.687Z,2.39
2022-12-09T19:44:37.226Z,2.34
2022-12-09T19:47:07.496Z,2.38
2022-12-09T19:49:34.599Z,2.40
2022-12-09T19:52:01.640Z,2.33
2022-12-09T19:54:29.597Z,2.32
2022-12-09T19:56:56.896Z,2.33
2022-12-09T19:59:23.853Z,2.38
2022-12-09T20:01:51.451Z,2.41
2022-12-09T20:07:08.685Z,2.35
2022-12-09T20:09:37.211Z,2.30
2022-12-09T20:12:04.805Z,2.27
2022-12-09T20:14:31.829Z,2.28
2022-12-09T20:16:58.772Z,2.31
2022-12-09T20:19:25.499Z,2.32
2022-12-09T20:21:52.384Z,2.31
2022-12-09T20:24:19.249Z,2.30
2022-12-09T20:26:46.167Z,2.29
2022-12-09T20:29:13.018Z,2.34
2022-12-09T20:31:41.777Z,2.33
2022-12-09T20:34:14.321Z,2.29
2022-12-09T20:36:43.949Z,2.31
2022-12-09T20:39:15.497Z,2.37
2022-12-09T20:41:43.029Z,2.34
2022-12-09T20:44:12.145Z,2.36
2022-12-09T20:46:41.380Z,2.40
2022-12-09T20:49:09.782Z,2.36
2022-12-09T20:51:39.225Z,2.34
2022-12-09T20:54:08.029Z,2.38
2022-12-09T20:56:35.717Z,2.40
2022-12-09T20:59:04.693Z,2.38
2022-12-09T21:01:34.605Z,2.34
2022-12-09T21:04:03.156Z,2.34
2022-12-09T21:06:35.675Z,2.37
2022-12-09T21:09:06.753Z,2.39
2022-12-09T21:11:34.214Z,2.34
2022-12-09T21:14:04.748Z,2.37
2022-12-09T21:16:35.432Z,2.33
2022-12-09T21:19:06.191Z,2.31
2022-12-09T21:21:35.374Z,2.34
2022-12-09T21:24:02.998Z,2.33
2022-12-09T21:26:30.729Z,2.31
2022-12-09T21:28:59.682Z,2.31
2022-12-09T21:31:29.947Z,2.30
2022-12-09T21:33:58.696Z,2.31
2022-12-09T21:36:28.736Z,2.36
2022-12-09T21:38:56.328Z,2.39
2022-12-09T21:41:25.747Z,2.42
2022-12-09T21:43:54.995Z,2.45
2022-12-09T21:46:25.165Z,2.45
2022-12-09T21:48:59.995Z,2.45
2022-12-09T21:51:30.909Z,2.44
2022-12-09T21:53:57.721Z,2.45
2022-12-09T21:56:26.933Z,2.40
2022-12-09T21:58:55.978Z,2.39
2022-12-09T22:01:29.487Z,2.42
2022-12-09T22:03:58.051Z,2.38
2022-12-09T22:06:25.002Z,2.36
2022-12-09T22:08:51.983Z,2.36
2022-12-09T22:11:25.711Z,2.38
2022-12-09T22:13:53.015Z,2.37
2022-12-09T22:16:23.332Z,2.41
2022-12-09T22:18:52.539Z,2.37
2022-12-09T22:21:25.263Z,2.34
2022-12-09T22:23:58.587Z,2.40
2022-12-09T22:26:26.222Z,2.38
2022-12-09T22:28:53.895Z,2.35
2022-12-09T22:31:24.080Z,2.41
2022-12-09T22:33:52.758Z,2.39
2022-12-09T22:36:20.350Z,2.37
2022-12-09T22:38:48.091Z,2.33
2022-12-09T22:41:21.286Z,2.34
2022-12-09T22:43:49.879Z,2.34
2022-12-09T22:46:21.545Z,2.34
2022-12-09T22:48:49.087Z,2.32
2022-12-09T22:51:21.796Z,2.36
2022-12-09T22:53:51.397Z,2.41
2022-12-09T22:56:18.861Z,2.42
2022-12-09T22:58:45.637Z,2.39
2022-12-09T23:01:18.286Z,2.36
2022-12-09T23:03:44.968Z,2.36
2022-12-09T23:06:12.243Z,2.36
2022-12-09T23:08:40.856Z,2.33
2022-12-09T23:11:11.821Z,2.31
2022-12-09T23:13:41.175Z,2.33
2022-12-09T23:16:12.717Z,2.35
2022-12-09T23:18:40.323Z,2.33
2022-12-09T23:21:11.988Z,2.34
2022-12-09T23:23:39.668Z,2.33
2022-12-09T23:26:18.015Z,2.27
2022-12-09T23:28:48.503Z,2.27
2022-12-09T23:31:17.942Z,2.28
2022-12-09T23:33:46.983Z,2.29
2022-12-09T23:36:19.256Z,2.30
2022-12-09T23:38:48.378Z,2.28
2022-12-09T23:41:17.718Z,2.27
2022-12-09T23:43:46.116Z,2.27
2022-12-09T23:46:16.362Z,2.28
2022-12-09T23:48:48.093Z,2.28
2022-12-09T23:51:23.543Z,2.32
2022-12-09T23:53:52.136Z,2.33
2022-12-09T23:56:21.152Z,2.34
2022-12-09T23:58:52.576Z,2.34
